createdAt,value
2019-05-12T00:00:53.429Z,100825.62
2019-05-12T00:03:22.809Z,100824.20
2019-05-12T00:05:52.244Z,100829.77
2019-05-12T00:08:21.810Z,100840.05
2019-05-12T00:10:52.176Z,100842.69
2019-05-12T00:13:22.297Z,100843.44
2019-05-12T00:15:52.040Z,100839.88
2019-05-12T00:18:22.050Z,100847.36
2019-05-12T00:20:52.252Z,100848.39
2019-05-12T00:23:27.033Z,100857.08
2019-05-12T00:25:53.451Z,100858.63
2019-05-12T00:28:22.818Z,100867.59
2019-05-12T00:30:52.270Z,100869.04
2019-05-12T00:33:22.171Z,100870.25
2019-05-12T00:35:52.309Z,100879.23
2019-05-12T00:38:22.313Z,100875.98
2019-05-12T00:40:52.419Z,100879.90
2019-05-12T00:43:22.420Z,100884.40
2019-05-12T00:45:52.375Z,100882.20
2019-05-12T00:48:22.392Z,100880.32
2019-05-12T00:50:52.502Z,100891.54
2019-05-12T00:53:36.155Z,100889.73
2019-05-12T00:55:54.000Z,100892.28
2019-05-12T00:58:23.443Z,100895.77
2019-05-12T01:00:52.825Z,100899.98
2019-05-12T01:03:22.577Z,100908.47
2019-05-12T01:05:52.704Z,100916.91
2019-05-12T01:08:22.711Z,100915.70
2019-05-12T01:10:52.746Z,100917.75
2019-05-12T01:13:22.851Z,100915.61
2019-05-12T01:15:53.049Z,100919.59
2019-05-12T01:18:22.995Z,100926.06
2019-05-12T01:20:53.244Z,100927.47
2019-05-12T01:23:23.697Z,100924.84
2019-05-12T01:25:53.177Z,100928.73
2019-05-12T01:28:23.392Z,100943.66
2019-05-12T01:30:54.795Z,100948.09
2019-05-12T01:33:24.453Z,100953.91
2019-05-12T01:35:54.160Z,100954.49
2019-05-12T01:38:23.785Z,100959.13
2019-05-12T01:40:53.793Z,100955.89
2019-05-12T01:43:23.349Z,100959.27
2019-05-12T01:45:53.367Z,100963.58
2019-05-12T01:48:23.794Z,100962.07
2019-05-12T01:50:53.505Z,100959.27
2019-05-12T01:53:23.524Z,100961.09
2019-05-12T01:55:53.793Z,100969.96
2019-05-12T01:58:23.555Z,100980.22
2019-05-12T02:00:53.560Z,100984.39
2019-05-12T02:03:23.710Z,100987.55
2019-05-12T02:05:57.795Z,100988.69
2019-05-12T02:08:28.073Z,100995.20
2019-05-12T02:11:29.971Z,100993.07
2019-05-12T02:13:59.717Z,100995.25
2019-05-12T02:16:29.436Z,100999.06
2019-05-12T02:18:58.813Z,100996.33
2019-05-12T02:21:28.183Z,101001.91
2019-05-12T02:23:58.304Z,101002.45
2019-05-12T02:26:29.077Z,101009.30
2019-05-12T02:28:58.740Z,101016.04
2019-05-12T02:31:29.428Z,101022.06
2019-05-12T02:33:59.178Z,101030.05
2019-05-12T02:36:28.543Z,101023.63
2019-05-12T02:38:58.253Z,101029.58
2019-05-12T02:41:27.652Z,101035.52
2019-05-12T02:43:57.086Z,101042.09
2019-05-12T02:46:26.764Z,101038.89
2019-05-12T02:48:56.223Z,101045.31
2019-05-12T02:51:25.644Z,101050.30
2019-05-12T02:53:56.317Z,101052.59
2019-05-12T02:56:27.513Z,101059.25
2019-05-12T02:58:58.084Z,101060.87
2019-05-12T03:01:29.677Z,101061.61
2019-05-12T03:04:05.397Z,101060.85
2019-05-12T03:06:36.104Z,101060.31
2019-05-12T03:09:07.915Z,101066.31
2019-05-12T03:11:38.017Z,101065.85
2019-05-12T03:14:07.481Z,101065.30
2019-05-12T03:16:36.839Z,101075.33
2019-05-12T03:19:06.289Z,101077.08
2019-05-12T03:21:35.994Z,101078.73
2019-05-12T03:24:06.768Z,101084.95
2019-05-12T03:26:36.312Z,101085.28
2019-05-12T03:29:06.381Z,101091.56
2019-05-12T03:31:39.930Z,101097.76
2019-05-12T03:34:10.493Z,101100.12
2019-05-12T03:36:41.660Z,101096.48
2019-05-12T03:39:09.735Z,101102.87
2019-05-12T03:41:39.130Z,101104.83
2019-05-12T03:44:08.497Z,101106.83
2019-05-12T03:46:37.938Z,101121.72
2019-05-12T03:49:07.300Z,101115.27
2019-05-12T03:51:36.768Z,101125.98
2019-05-12T03:54:06.177Z,101127.03
2019-05-12T03:56:35.925Z,101131.70
2019-05-12T03:59:05.942Z,101138.44
2019-05-12T04:01:36.614Z,101138.90
2019-05-12T04:04:06.328Z,101148.67
2019-05-12T04:06:35.832Z,101143.05
2019-05-12T04:09:08.596Z,101146.63
2019-05-12T04:11:38.608Z,101153.48
2019-05-12T04:14:08.046Z,101161.54
2019-05-12T04:16:37.441Z,101168.44
2019-05-12T04:19:06.801Z,101176.14
2019-05-12T04:21:36.181Z,101180.31
2019-05-12T04:24:06.245Z,101187.42
2019-05-12T04:26:36.647Z,101197.16
2019-05-12T04:29:06.749Z,101199.67
2019-05-12T04:31:37.426Z,101204.61
2019-05-12T04:34:06.800Z,101206.80
2019-05-12T04:36:36.177Z,101203.78
2019-05-12T04:39:07.570Z,101208.70
2019-05-12T04:41:37.213Z,101216.36
2019-05-12T04:44:06.842Z,101213.44
2019-05-12T04:46:36.224Z,101219.16
2019-05-12T04:49:05.841Z,101229.80
2019-05-12T04:51:35.546Z,101231.87
2019-05-12T04:54:06.025Z,101238.03
2019-05-12T04:56:36.371Z,101243.84
2019-05-12T04:59:05.825Z,101239.18
2019-05-12T05:01:35.491Z,101244.74
2019-05-12T05:04:06.013Z,101247.49
2019-05-12T05:06:36.221Z,101252.18
2019-05-12T05:09:08.302Z,101248.05
2019-05-12T05:11:37.697Z,101256.39
2019-05-12T05:14:07.128Z,101263.88
2019-05-12T05:16:36.491Z,101266.28
2019-05-12T05:19:05.861Z,101277.36
2019-05-12T05:21:35.397Z,101277.64
2019-05-12T05:24:04.815Z,101280.20
2019-05-12T05:26:37.306Z,101285.09
2019-05-12T05:29:05.597Z,101283.66
2019-05-12T05:31:35.316Z,101289.14
2019-05-12T05:34:05.147Z,101290.84
2019-05-12T05:36:34.890Z,101295.88
2019-05-12T05:39:07.545Z,101291.33
2019-05-12T05:41:43.459Z,101297.08
2019-05-12T05:44:08.023Z,101303.28
2019-05-12T05:46:38.983Z,101300.60
2019-05-12T05:49:08.505Z,101313.56
2019-05-12T05:51:39.679Z,101312.44
2019-05-12T05:54:08.988Z,101310.67
2019-05-12T05:56:42.689Z,101313.16
2019-05-12T05:59:09.472Z,101316.88
2019-05-12T06:01:40.155Z,101323.77
2019-05-12T06:04:10.032Z,101323.61
2019-05-12T06:06:44.322Z,101323.34
2019-05-12T06:09:10.532Z,101327.09
2019-05-12T06:11:39.896Z,101327.78
2019-05-12T06:14:14.035Z,101329.80
2019-05-12T06:16:40.714Z,101334.00
2019-05-12T06:19:10.099Z,101335.94
2019-05-12T06:21:39.466Z,101335.99
2019-05-12T06:24:14.166Z,101341.63
2019-05-12T06:26:54.589Z,101339.52
2019-05-12T06:29:19.144Z,101341.24
2019-05-12T06:31:44.183Z,101341.81
2019-05-12T06:34:20.390Z,101345.84
2019-05-12T06:36:44.812Z,101344.64
2019-05-12T06:39:19.108Z,101348.48
2019-05-12T06:41:45.368Z,101348.95
2019-05-12T06:44:19.151Z,101358.48
2019-05-12T06:46:45.855Z,101357.55
2019-05-12T06:49:17.458Z,101359.87
2019-05-12T06:51:46.900Z,101360.89
2019-05-12T06:54:16.280Z,101361.02
2019-05-12T06:56:50.164Z,101359.94
2019-05-12T06:59:16.764Z,101371.27
2019-05-12T07:01:49.915Z,101372.20
2019-05-12T07:04:17.250Z,101370.91
2019-05-12T07:06:49.874Z,101377.30
2019-05-12T07:09:24.926Z,101379.52
2019-05-12T07:11:58.869Z,101384.66
2019-05-12T07:14:23.239Z,101380.69
2019-05-12T07:17:01.351Z,101380.30
2019-05-12T07:19:25.583Z,101380.23
2019-05-12T07:21:58.873Z,101391.61
2019-05-12T07:24:26.293Z,101386.25
2019-05-12T07:27:04.371Z,101385.31
2019-05-12T07:29:26.772Z,101391.43
2019-05-12T07:31:56.178Z,101391.19
2019-05-12T07:34:26.159Z,101393.41
2019-05-12T07:36:58.362Z,101389.16
2019-05-12T07:39:29.645Z,101395.97
2019-05-12T07:42:03.591Z,101395.06
2019-05-12T07:44:40.078Z,101405.14
2019-05-12T07:47:07.778Z,101397.47
2019-05-12T07:49:38.594Z,101405.92
2019-05-12T07:52:08.474Z,101403.33
2019-05-12T07:54:39.571Z,101414.73
2019-05-12T07:57:12.585Z,101412.09
2019-05-12T07:59:41.149Z,101413.73
2019-05-12T08:02:10.633Z,101412.88
2019-05-12T08:04:41.154Z,101419.02
2019-05-12T08:07:10.919Z,101412.84
2019-05-12T08:09:40.551Z,101422.09
2019-05-12T08:12:19.429Z,101422.98
2019-05-12T08:14:41.059Z,101421.46
2019-05-12T08:17:18.610Z,101426.11
2019-05-12T08:19:44.254Z,101426.26
2019-05-12T08:22:13.592Z,101429.57
2019-05-12T08:24:47.920Z,101425.28
2019-05-12T08:27:14.413Z,101423.97
2019-05-12T08:29:43.737Z,101430.84
2019-05-12T08:32:15.946Z,101424.26
2019-05-12T08:34:44.296Z,101429.42
2019-05-12T08:37:14.082Z,101421.64
2019-05-12T08:39:44.340Z,101420.69
2019-05-12T08:42:14.514Z,101422.88
2019-05-12T08:44:44.096Z,101430.13
2019-05-12T08:47:15.197Z,101420.22
2019-05-12T08:49:53.383Z,101425.53
2019-05-12T08:52:15.842Z,101435.72
2019-05-12T08:54:49.272Z,101430.45
2019-05-12T08:57:16.349Z,101430.28
2019-05-12T08:59:45.806Z,101432.45
2019-05-12T09:02:15.247Z,101431.48
2019-05-12T09:04:51.337Z,101436.27
2019-05-12T09:07:16.468Z,101434.05
2019-05-12T09:09:45.805Z,101424.47
2019-05-12T09:12:15.188Z,101424.05
2019-05-12T09:14:46.155Z,101437.52
2019-05-12T09:17:15.825Z,101440.27
2019-05-12T09:19:45.223Z,101442.11
2019-05-12T09:22:20.372Z,101438.50
2019-05-12T09:24:45.690Z,101443.80
2019-05-12T09:27:15.075Z,101445.17
2019-05-12T09:29:44.447Z,101441.55
2019-05-12T09:32:14.505Z,101453.13
2019-05-12T09:34:52.613Z,101450.02
2019-05-12T09:37:15.490Z,101451.95
2019-05-12T09:39:47.329Z,101446.02
2019-05-12T09:42:19.196Z,101450.73
2019-05-12T09:44:47.071Z,101459.86
2019-05-12T09:47:23.283Z,101459.73
2019-05-12T09:49:47.548Z,101465.18
2019-05-12T09:52:22.123Z,101469.31
2019-05-12T09:54:48.112Z,101465.95
2019-05-12T09:57:17.479Z,101473.04
2019-05-12T09:59:57.336Z,101473.09
2019-05-12T10:02:20.752Z,101473.20
2019-05-12T10:05:00.552Z,101470.50
2019-05-12T10:07:26.949Z,101474.54
2019-05-12T10:09:58.937Z,101479.88
2019-05-12T10:12:29.690Z,101475.09
2019-05-12T10:14:58.599Z,101469.33
2019-05-12T10:17:30.179Z,101471.11
2019-05-12T10:19:59.344Z,101469.62
2019-05-12T10:22:37.773Z,101471.91
2019-05-12T10:25:07.175Z,101474.70
2019-05-12T10:27:36.781Z,101482.77
2019-05-12T10:30:12.659Z,101483.94
2019-05-12T10:32:43.645Z,101487.63
2019-05-12T10:35:20.965Z,101483.25
2019-05-12T10:37:47.258Z,101476.79
2019-05-12T10:40:17.708Z,101480.73
2019-05-12T10:42:49.483Z,101476.71
2019-05-12T10:45:20.914Z,101474.46
2019-05-12T10:47:51.081Z,101477.75
2019-05-12T10:50:20.598Z,101480.52
2019-05-12T10:52:49.965Z,101473.67
2019-05-12T10:55:19.425Z,101483.11
2019-05-12T10:57:54.942Z,101476.55
2019-05-12T11:00:25.302Z,101474.02
2019-05-12T11:02:53.352Z,101475.98
2019-05-12T11:05:25.887Z,101480.23
2019-05-12T11:07:53.996Z,101479.95
2019-05-12T11:10:23.786Z,101471.41
2019-05-12T11:12:53.237Z,101479.41
2019-05-12T11:15:26.797Z,101477.52
2019-05-12T11:17:57.996Z,101472.67
2019-05-12T11:20:27.396Z,101472.09
2019-05-12T11:22:56.840Z,101474.03
2019-05-12T11:25:45.893Z,101470.06
2019-05-12T11:28:15.306Z,101475.31
2019-05-12T11:30:44.697Z,101482.95
2019-05-12T11:33:14.308Z,101486.20
2019-05-12T11:35:44.117Z,101482.69
2019-05-12T11:38:13.666Z,101480.11
2019-05-12T11:40:43.807Z,101480.20
2019-05-12T11:43:14.366Z,101478.09
2019-05-12T11:45:44.300Z,101480.38
2019-05-12T11:48:14.532Z,101489.99
2019-05-12T11:50:49.442Z,101482.55
2019-05-12T11:53:15.296Z,101487.38
2019-05-12T11:55:44.700Z,101488.55
2019-05-12T11:58:14.063Z,101497.89
2019-05-12T12:00:48.065Z,101497.89
2019-05-12T12:03:18.329Z,101486.33
2019-05-12T12:05:47.908Z,101481.58
2019-05-12T12:08:17.306Z,101481.53
2019-05-12T12:10:49.190Z,101490.40
2019-05-12T12:13:19.345Z,101489.88
2019-05-12T12:15:49.398Z,101484.89
2019-05-12T12:18:19.093Z,101487.09
2019-05-12T12:20:48.716Z,101492.72
2019-05-12T12:23:18.091Z,101499.02
2019-05-12T12:25:48.527Z,101508.37
2019-05-12T12:28:18.605Z,101501.30
2019-05-12T12:30:52.577Z,101501.38
2019-05-12T12:33:19.167Z,101506.83
2019-05-12T12:35:50.417Z,101506.11
2019-05-12T12:38:20.044Z,101514.22
2019-05-12T12:40:49.756Z,101509.88
2019-05-12T12:43:19.137Z,101510.42
2019-05-12T12:45:50.176Z,101506.48
2019-05-12T12:48:27.803Z,101516.42
2019-05-12T12:50:53.415Z,101526.58
2019-05-12T12:53:23.862Z,101517.28
2019-05-12T12:55:53.969Z,101523.61
2019-05-12T12:58:26.880Z,101525.03
2019-05-12T13:00:56.948Z,101522.90
2019-05-12T13:03:29.906Z,101525.25
2019-05-12T13:05:57.137Z,101521.63
2019-05-12T13:08:26.518Z,101523.69
2019-05-12T13:10:55.953Z,101520.70
2019-05-12T13:13:25.326Z,101524.00
2019-05-12T13:15:54.698Z,101526.50
2019-05-12T13:18:32.569Z,101528.07
2019-05-12T13:20:58.039Z,101538.04
2019-05-12T13:23:36.801Z,101534.23
2019-05-12T13:25:57.704Z,101524.16
2019-05-12T13:28:27.040Z,101526.90
2019-05-12T13:31:08.239Z,101530.26
2019-05-12T13:33:27.542Z,101539.59
2019-05-12T13:35:57.567Z,101544.08
2019-05-12T13:38:30.310Z,101539.84
2019-05-12T13:40:58.203Z,101541.47
2019-05-12T13:43:27.587Z,101536.45
2019-05-12T13:45:56.957Z,101537.89
2019-05-12T13:48:26.358Z,101538.55
2019-05-12T13:51:07.182Z,101536.09
2019-05-12T13:53:26.860Z,101545.44
2019-05-12T13:55:56.256Z,101542.95
2019-05-12T13:58:28.169Z,101541.28
2019-05-12T14:03:28.374Z,101548.81
2019-05-12T14:05:57.754Z,101547.79
2019-05-12T14:08:27.113Z,101549.61
2019-05-12T14:10:59.363Z,101547.94
2019-05-12T14:13:27.618Z,101538.59
2019-05-12T14:15:57.376Z,101531.23
2019-05-12T14:18:27.083Z,101528.05
2019-05-12T14:21:00.633Z,101544.00
2019-05-12T14:23:30.074Z,101538.84
2019-05-12T14:26:02.314Z,101541.20
2019-05-12T14:28:30.623Z,101545.73
2019-05-12T14:31:02.580Z,101549.53
2019-05-12T14:33:37.533Z,101557.48
2019-05-12T14:36:04.118Z,101551.35
2019-05-12T14:38:33.906Z,101551.91
2019-05-12T14:41:09.976Z,101556.45
2019-05-12T14:43:34.486Z,101551.58
2019-05-12T14:46:06.210Z,101558.80
2019-05-12T14:48:35.127Z,101556.80
2019-05-12T14:51:04.745Z,101556.28
2019-05-12T14:53:38.226Z,101556.70
2019-05-12T14:56:06.452Z,101552.92
2019-05-12T14:58:36.378Z,101561.27
2019-05-12T15:01:06.428Z,101560.56
2019-05-12T15:03:36.477Z,101563.72
2019-05-12T15:06:07.703Z,101565.53
2019-05-12T15:08:40.375Z,101559.98
2019-05-12T15:11:08.341Z,101567.64
2019-05-12T15:13:37.777Z,101559.25
2019-05-12T15:16:07.131Z,101562.34
2019-05-12T15:18:39.459Z,101556.31
2019-05-12T15:21:07.753Z,101557.27
2019-05-12T15:23:37.600Z,101556.20
2019-05-12T15:26:09.614Z,101564.47
2019-05-12T15:28:38.054Z,101575.58
2019-05-12T15:31:07.769Z,101566.92
2019-05-12T15:33:37.182Z,101561.42
2019-05-12T15:36:06.883Z,101566.96
2019-05-12T15:38:37.028Z,101578.98
2019-05-12T15:41:10.760Z,101582.84
2019-05-12T15:43:44.231Z,101581.12
2019-05-12T15:46:09.158Z,101574.06
2019-05-12T15:48:38.555Z,101575.44
2019-05-12T15:51:08.716Z,101576.13
2019-05-12T15:53:38.307Z,101583.53
2019-05-12T15:56:14.813Z,101584.69
2019-05-12T15:58:39.073Z,101595.41
2019-05-12T16:01:08.441Z,101597.17
2019-05-12T16:03:37.884Z,101594.05
2019-05-12T16:06:11.828Z,101594.05
2019-05-12T16:08:38.548Z,101594.77
2019-05-12T16:11:07.924Z,101595.37
2019-05-12T16:13:37.601Z,101601.20
2019-05-12T16:16:07.874Z,101603.94
2019-05-12T16:18:40.456Z,101602.33
2019-05-12T16:21:09.423Z,101603.25
2019-05-12T16:23:38.939Z,101595.94
2019-05-12T16:26:12.486Z,101602.28
2019-05-12T16:28:40.022Z,101598.80
2019-05-12T16:31:09.399Z,101599.97
2019-05-12T16:33:39.032Z,101592.14
2019-05-12T16:36:11.516Z,101593.22
2019-05-12T16:38:39.519Z,101601.38
2019-05-12T16:41:08.897Z,101602.70
2019-05-12T16:43:38.308Z,101601.94
2019-05-12T16:46:08.236Z,101603.06
2019-05-12T16:48:42.280Z,101604.18
2019-05-12T16:51:09.642Z,101601.47
2019-05-12T16:53:39.013Z,101597.59
2019-05-12T16:56:08.691Z,101604.38
2019-05-12T16:58:38.318Z,101606.41
2019-05-12T17:01:08.361Z,101609.41
2019-05-12T17:03:38.380Z,101607.28
2019-05-12T17:06:08.761Z,101611.20
2019-05-12T17:08:38.428Z,101613.59
2019-05-12T17:11:24.201Z,101613.11
2019-05-12T17:13:39.567Z,101613.19
2019-05-12T17:16:09.234Z,101619.74
2019-05-12T17:18:39.548Z,101619.34
2019-05-12T17:21:08.934Z,101615.74
2019-05-12T17:23:38.740Z,101615.23
2019-05-12T17:26:09.175Z,101616.87
2019-05-12T17:28:38.776Z,101612.16
2019-05-12T17:31:08.792Z,101616.67
2019-05-12T17:33:39.351Z,101611.56
2019-05-12T17:36:17.151Z,101619.31
2019-05-12T17:38:40.198Z,101618.80
2019-05-12T17:41:09.614Z,101618.95
2019-05-12T17:43:45.131Z,101621.15
2019-05-12T17:46:13.471Z,101617.27
2019-05-12T17:48:42.841Z,101622.26
2019-05-12T17:51:13.675Z,101623.33
2019-05-12T17:53:43.467Z,101629.31
2019-05-12T17:56:13.939Z,101636.45
2019-05-12T17:58:46.927Z,101634.59
2019-05-12T18:01:14.554Z,101637.78
2019-05-12T18:03:48.771Z,101639.57
2019-05-12T18:06:15.125Z,101642.83
2019-05-12T18:08:44.487Z,101644.48
2019-05-12T18:11:16.086Z,101651.66
2019-05-12T18:13:45.038Z,101650.15
2019-05-12T18:16:20.668Z,101651.77
2019-05-12T18:18:45.520Z,101649.30
2019-05-12T18:21:21.446Z,101647.72
2019-05-12T18:23:46.106Z,101654.00
2019-05-12T18:26:16.487Z,101654.59
2019-05-12T18:28:45.947Z,101662.41
2019-05-12T18:31:15.658Z,101665.01
2019-05-12T18:33:52.020Z,101659.69
2019-05-12T18:36:16.217Z,101662.05
2019-05-12T18:38:45.636Z,101662.46
2019-05-12T18:41:15.330Z,101671.22
2019-05-12T18:43:44.711Z,101674.23
2019-05-12T18:46:14.301Z,101674.61
2019-05-12T18:48:54.254Z,101670.80
2019-05-12T18:51:20.950Z,101672.20
2019-05-12T18:53:53.992Z,101671.72
2019-05-12T18:56:24.819Z,101673.06
2019-05-12T18:58:54.615Z,101676.44
2019-05-12T19:01:24.600Z,101672.75
2019-05-12T19:03:54.904Z,101675.84
2019-05-12T19:06:24.587Z,101675.56
2019-05-12T19:08:54.117Z,101677.95
2019-05-12T19:11:31.495Z,101686.06
2019-05-12T19:13:57.109Z,101684.71
2019-05-12T19:16:25.702Z,101688.86
2019-05-12T19:18:55.826Z,101691.89
2019-05-12T19:21:25.362Z,101697.22
2019-05-12T19:23:54.736Z,101701.27
2019-05-12T19:26:24.109Z,101709.41
2019-05-12T19:28:57.938Z,101715.78
2019-05-12T19:31:24.980Z,101715.75
2019-05-12T19:34:14.437Z,101720.34
2019-05-12T19:36:25.757Z,101725.78
2019-05-12T19:38:55.147Z,101724.28
2019-05-12T19:41:24.701Z,101724.89
2019-05-12T19:43:54.425Z,101730.50
2019-05-12T19:46:24.189Z,101721.57
2019-05-12T19:48:54.097Z,101728.48
2019-05-12T19:51:27.714Z,101730.62
2019-05-12T19:54:14.176Z,101730.16
2019-05-12T19:56:45.155Z,101732.20
2019-05-12T19:59:14.788Z,101732.03
2019-05-12T20:01:44.624Z,101727.38
2019-05-12T20:04:22.912Z,101727.89
2019-05-12T20:06:45.454Z,101732.05
2019-05-12T20:09:14.929Z,101732.86
2019-05-12T20:11:44.304Z,101734.63
2019-05-12T20:14:16.670Z,101736.28
2019-05-12T20:16:44.791Z,101738.59
2019-05-12T20:19:14.243Z,101743.49
2019-05-12T20:21:43.959Z,101746.34
2019-05-12T20:24:15.059Z,101744.00
2019-05-12T20:26:44.678Z,101748.02
2019-05-12T20:29:14.052Z,101748.28
2019-05-12T20:31:48.418Z,101755.14
2019-05-12T20:34:14.612Z,101750.95
2019-05-12T20:36:44.513Z,101752.39
2019-05-12T20:39:17.138Z,101753.88
2019-05-12T20:41:45.073Z,101759.92
2019-05-12T20:44:17.136Z,101760.88
2019-05-12T20:46:45.813Z,101764.16
2019-05-12T20:49:15.197Z,101763.55
2019-05-12T20:51:46.501Z,101763.18
2019-05-12T20:54:18.024Z,101763.72
2019-05-12T20:56:46.876Z,101763.39
2019-05-12T20:59:21.940Z,101770.36
2019-05-12T21:01:47.356Z,101770.43
2019-05-12T21:04:22.067Z,101764.70
2019-05-12T21:06:48.616Z,101763.62
2019-05-12T21:09:18.082Z,101770.91
2019-05-12T21:11:47.458Z,101774.39
2019-05-12T21:14:16.851Z,101770.23
2019-05-12T21:16:46.238Z,101775.45
2019-05-12T21:19:15.613Z,101772.03
2019-05-12T21:21:45.010Z,101775.27
2019-05-12T21:24:14.713Z,101779.20
2019-05-12T21:26:44.232Z,101781.62
2019-05-12T21:29:13.870Z,101777.26
2019-05-12T21:31:44.554Z,101777.75
2019-05-12T21:34:21.178Z,101785.13
2019-05-12T21:36:45.183Z,101786.73
2019-05-12T21:39:14.548Z,101786.46
2019-05-12T21:41:47.390Z,101793.53
2019-05-12T21:44:15.034Z,101794.17
2019-05-12T21:46:57.451Z,101797.98
2019-05-12T21:49:15.883Z,101805.04
2019-05-12T21:51:50.319Z,101809.92
2019-05-12T21:54:16.475Z,101815.00
2019-05-12T21:56:49.333Z,101810.16
2019-05-12T21:59:16.956Z,101812.52
2019-05-12T22:01:47.377Z,101809.72
2019-05-12T22:04:16.981Z,101814.64
2019-05-12T22:06:51.405Z,101814.50
2019-05-12T22:09:17.697Z,101809.97
2019-05-12T22:11:50.889Z,101820.98
2019-05-12T22:14:18.178Z,101826.37
2019-05-12T22:16:49.208Z,101822.81
2019-05-12T22:19:18.659Z,101830.57
2019-05-12T22:21:49.604Z,101832.00
2019-05-12T22:24:19.059Z,101832.38
2019-05-12T22:26:48.447Z,101836.18
2019-05-12T22:29:21.137Z,101840.13
2019-05-12T22:31:49.003Z,101843.23
2019-05-12T22:34:18.457Z,101848.56
2019-05-12T22:36:55.208Z,101848.00
2019-05-12T22:39:18.943Z,101847.44
2019-05-12T22:41:48.619Z,101843.86
2019-05-12T22:44:20.798Z,101848.94
2019-05-12T22:46:49.106Z,101852.53
2019-05-12T22:49:21.092Z,101858.41
2019-05-12T22:51:54.553Z,101858.78
2019-05-12T22:54:20.955Z,101855.66
2019-05-12T22:56:55.119Z,101852.35
2019-05-12T22:59:23.977Z,101858.67
2019-05-12T23:01:54.159Z,101860.21
2019-05-12T23:04:25.993Z,101861.17
2019-05-12T23:06:54.766Z,101862.69
2019-05-12T23:09:43.627Z,101862.64
2019-05-12T23:12:18.493Z,101870.00
2019-05-12T23:14:45.166Z,101876.47
2019-05-12T23:17:14.547Z,101873.59
2019-05-12T23:19:51.469Z,101878.45
2019-05-12T23:22:15.158Z,101876.27
2019-05-12T23:24:44.607Z,101880.29
2019-05-12T23:27:13.989Z,101878.38
2019-05-12T23:29:44.452Z,101878.61
2019-05-12T23:32:14.988Z,101879.92
2019-05-12T23:34:53.063Z,101878.72
2019-05-12T23:37:15.701Z,101877.50
2019-05-12T23:39:45.097Z,101883.52
2019-05-12T23:42:14.439Z,101889.41
2019-05-12T23:44:44.531Z,101887.94
2019-05-12T23:47:14.564Z,101882.91
2019-05-12T23:49:44.509Z,101886.21
2019-05-12T23:52:14.562Z,101890.65
2019-05-12T23:54:44.552Z,101893.29
2019-05-12T23:57:15.692Z,101899.84
2019-05-12T23:59:45.196Z,101896.28
